Time,TemperatureF,DewpointF,PressureIn,WindDirection,WindDirectionDegrees,WindSpeedMPH,WindSpeedGustMPH,Humidity,HourlyPrecipIn,Conditions,Clouds,dailyrainin,SoftwareType,DateUTC
2013-02-10 00:00:00,46.6,35.8,30.12,ESE,107,2.3,2.3,66,0.00,BKN,FEW,0.00,WeatherDisplay:10.37,2013-02-10 06:00:00,
2013-02-10 00:05:00,46.4,34.9,30.12,SE,140,2.3,2.3,64,0.00,OVC,FEW,0.00,WeatherDisplay:10.37,2013-02-10 06:05:00,
2013-02-10 00:10:00,46.5,33.8,30.12,SE,140,1.1,0.0,61,0.00,OVC,FEW,0.00,WeatherDisplay:10.37,2013-02-10 06:10:00,
2013-02-10 00:15:00,46.6,33.4,30.12,East,92,3.5,3.5,60,0.00,OVC,FEW,0.00,WeatherDisplay:10.37,2013-02-10 06:15:00,
2013-02-10 00:20:00,46.7,33.5,30.11,East,98,1.1,1.1,60,0.00,OVC,FEW,0.00,WeatherDisplay:10.37,2013-02-10 06:20:00,
2013-02-10 00:25:00,46.8,34.0,30.11,ESE,117,1.1,1.1,61,0.00,OVC,FEW,0.00,WeatherDisplay:10.37,2013-02-10 06:25:00,
2013-02-10 00:30:00,46.8,34.0,30.11,ESE,113,2.3,2.3,61,0.00,OVC,FEW,0.00,WeatherDisplay:10.37,2013-02-10 06:30:00,
2013-02-10 00:35:00,46.7,33.5,30.11,ESE,107,3.5,3.5,60,0.00,OVC,FEW,0.00,WeatherDisplay:10.37,2013-02-10 06:35:00,
2013-02-10 00:40:00,46.8,33.6,30.10,ESE,107,3.5,3.5,60,0.00,OVC,FEW,0.00,WeatherDisplay:10.37,2013-02-10 06:40:00,
2013-02-10 00:45:00,46.9,33.7,30.10,East,91,2.3,2.3,60,0.00,OVC,FEW,0.00,WeatherDisplay:10.37,2013-02-10 06:45:00,
2013-02-10 00:50:00,47.1,33.9,30.10,ESE,116,4.6,4.6,60,0.00,OVC,FEW,0.00,WeatherDisplay:10.37,2013-02-10 06:50:00,
2013-02-10 00:55:00,47.2,33.6,30.10,SE,136,1.1,1.1,59,0.00,OVC,FEW,0.00,WeatherDisplay:10.37,2013-02-10 06:55:00,
2013-02-10 01:00:00,47.5,33.9,30.11,SE,124,1.1,1.1,59,0.00,OVC,FEW,0.00,WeatherDisplay:10.37,2013-02-10 07:00:00,
2013-02-10 01:05:00,47.6,34.0,30.10,ESE,111,1.1,1.1,59,0.00,SCT,FEW,0.00,WeatherDisplay:10.37,2013-02-10 07:05:00,
2013-02-10 01:10:00,47.7,34.1,30.10,ESE,115,1.1,1.1,59,0.00,SCT,FEW,0.00,WeatherDisplay:10.37,2013-02-10 07:10:00,
2013-02-10 01:15:00,47.8,33.7,30.10,ESE,104,2.3,2.3,58,0.00,SCT,FEW,0.00,WeatherDisplay:10.37,2013-02-10 07:15:00,
2013-02-10 01:20:00,47.8,34.2,30.11,ESE,104,0.0,0.0,59,0.00,SCT,FEW,0.00,WeatherDisplay:10.37,2013-02-10 07:20:00,
2013-02-10 01:25:00,47.9,34.7,30.10,East,89,2.3,2.3,60,0.00,SCT,FEW,0.00,WeatherDisplay:10.37,2013-02-10 07:25:00,
2013-02-10 01:30:00,47.9,35.5,30.10,East,93,3.5,3.5,62,0.00,SCT,FEW,0.00,WeatherDisplay:10.37,2013-02-10 07:30:00,
2013-02-10 01:35:00,48.1,35.3,30.09,ESE,111,4.6,4.6,61,0.00,SCT,FEW,0.00,WeatherDisplay:10.37,2013-02-10 07:35:00,
2013-02-10 01:40:00,48.6,35.7,30.10,SSE,148,5.8,5.8,61,0.00,SCT,FEW,0.00,WeatherDisplay:10.37,2013-02-10 07:40:00,
2013-02-10 01:45:00,49.7,36.4,30.09,ESE,120,6.9,6.9,60,0.00,SCT,FEW,0.00,WeatherDisplay:10.37,2013-02-10 07:45:00,
2013-02-10 01:50:00,50.5,36.7,30.09,SE,134,8.1,8.1,59,0.00,SCT,FEW,0.00,WeatherDisplay:10.37,2013-02-10 07:50:00,
2013-02-10 01:55:00,51.1,37.3,30.10,SSE,165,6.9,6.9,59,0.00,SCT,FEW,0.00,WeatherDisplay:10.37,2013-02-10 07:55:00,
2013-02-10 02:00:00,51.6,37.3,30.10,SE,128,3.5,3.5,58,0.00,SCT,FEW,0.00,WeatherDisplay:10.37,2013-02-10 08:00:00,
2013-02-10 02:05:00,52.0,38.1,30.10,South,169,8.1,8.1,59,0.00,BKN,FEW,0.00,WeatherDisplay:10.37,2013-02-10 08:05:00,
2013-02-10 02:10:00,52.1,39.1,30.09,SSE,157,5.8,5.8,61,0.00,BKN,FEW,0.00,WeatherDisplay:10.37,2013-02-10 08:10:00,
2013-02-10 02:15:00,51.9,38.9,30.09,ESE,123,4.6,4.6,61,0.00,BKN,FEW,0.00,WeatherDisplay:10.37,2013-02-10 08:15:00,
2013-02-10 02:20:00,51.7,40.3,30.10,SSE,167,5.8,5.8,65,0.00,BKN,FEW,0.00,WeatherDisplay:10.37,2013-02-10 08:20:00,
2013-02-10 02:25:00,51.5,40.1,30.10,ESE,107,4.6,4.6,65,0.00,BKN,FEW,0.00,WeatherDisplay:10.37,2013-02-10 08:25:00,
2013-02-10 02:30:00,51.2,40.6,30.10,ESE,115,1.1,1.1,67,0.00,BKN,FEW,0.00,WeatherDisplay:10.37,2013-02-10 08:30:00,
2013-02-10 02:35:00,50.8,41.0,30.10,ESE,115,0.0,0.0,69,0.00,BKN,FEW,0.00,WeatherDisplay:10.37,2013-02-10 08:35:00,
2013-02-10 02:40:00,50.5,40.7,30.10,ESE,115,2.3,2.3,69,0.00,BKN,FEW,0.00,WeatherDisplay:10.37,2013-02-10 08:40:00,
2013-02-10 02:45:00,50.4,40.6,30.10,ESE,115,2.3,2.3,69,0.00,BKN,FEW,0.00,WeatherDisplay:10.37,2013-02-10 08:45:00,
2013-02-10 02:50:00,50.2,40.8,30.09,ENE,76,3.5,3.5,70,0.00,-DZ,FEW,0.00,WeatherDisplay:10.37,2013-02-10 08:50:00,
2013-02-10 02:55:00,49.9,41.6,30.09,ENE,78,1.1,1.6,73,0.00,-DZ,FEW,0.00,WeatherDisplay:10.37,2013-02-10 08:55:00,
2013-02-10 03:00:00,49.5,41.6,30.09,ENE,77,1.1,0.0,74,0.00,-DZ,FEW,0.00,WeatherDisplay:10.37,2013-02-10 09:00:00,
2013-02-10 03:06:00,49.3,41.0,30.08,ENE,77,1.1,1.1,73,0.00,-DZ,FEW,0.00,WeatherDisplay:10.37,2013-02-10 09:06:00,
2013-02-10 03:11:00,49.3,41.4,30.08,East,90,2.3,2.3,74,0.00,-DZ,FEW,0.00,WeatherDisplay:10.37,2013-02-10 09:11:00,
2013-02-10 03:16:00,49.2,40.6,30.09,East,90,0.0,0.0,72,0.00,-DZ,FEW,0.00,WeatherDisplay:10.37,2013-02-10 09:16:00,
2013-02-10 03:21:00,49.4,40.4,30.09,ESE,123,3.5,3.5,71,0.00,-DZ,FEW,0.00,WeatherDisplay:10.37,2013-02-10 09:21:00,
2013-02-10 03:26:00,49.7,41.0,30.09,ESE,121,2.3,2.3,72,0.00,-DZ,FEW,0.00,WeatherDisplay:10.37,2013-02-10 09:26:00,
2013-02-10 03:31:00,49.8,40.8,30.08,East,79,3.5,3.5,71,0.00,-DZ,FEW,0.00,WeatherDisplay:10.37,2013-02-10 09:31:00,
2013-02-10 03:36:00,49.7,41.0,30.08,East,80,0.0,1.2,72,0.00,-DZ,FEW,0.00,WeatherDisplay:10.37,2013-02-10 09:36:00,
2013-02-10 03:41:00,49.5,40.8,30.08,East,81,2.3,2.3,72,0.00,-DZ,FEW,0.00,WeatherDisplay:10.37,2013-02-10 09:41:00,
2013-02-10 03:46:00,49.2,40.6,30.08,ESE,112,2.3,2.3,72,0.00,-DZ,FEW,0.00,WeatherDisplay:10.37,2013-02-10 09:46:00,
2013-02-10 03:51:00,49.2,40.6,30.07,ESE,103,2.3,2.3,72,0.00,-DZ,FEW,0.00,WeatherDisplay:10.37,2013-02-10 09:51:00,
2013-02-10 03:56:00,49.7,40.3,30.07,ESE,113,2.3,2.3,70,0.00,-DZ,FEW,0.00,WeatherDisplay:10.37,2013-02-10 09:56:00,
2013-02-10 04:01:00,50.0,40.2,30.07,SSE,155,1.1,1.1,69,0.00,SCT,FEW,0.00,WeatherDisplay:10.37,2013-02-10 10:01:00,
2013-02-10 04:06:00,50.3,40.1,30.06,SSE,157,4.6,4.6,68,0.00,SCT,FEW,0.00,WeatherDisplay:10.37,2013-02-10 10:06:00,
2013-02-10 04:11:00,50.7,39.7,30.06,East,96,2.3,2.3,66,0.00,SCT,FEW,0.00,WeatherDisplay:10.37,2013-02-10 10:11:00,
2013-02-10 04:16:00,50.8,39.8,30.05,East,96,3.5,3.5,66,0.00,SCT,FEW,0.00,WeatherDisplay:10.37,2013-02-10 10:16:00,
2013-02-10 04:21:00,50.8,39.8,30.05,East,96,2.3,2.3,66,0.00,SCT,FEW,0.00,WeatherDisplay:10.37,2013-02-10 10:21:00,
2013-02-10 04:26:00,51.0,39.6,30.05,SE,146,4.6,4.6,65,0.00,SCT,FEW,0.00,WeatherDisplay:10.37,2013-02-10 10:26:00,
2013-02-10 04:31:00,51.2,39.0,30.05,ESE,123,3.2,3.2,63,0.00,SCT,FEW,0.00,WeatherDisplay:10.37,2013-02-10 10:31:00,
2013-02-10 04:36:00,51.2,40.2,30.05,ESE,121,2.3,2.3,66,0.00,SCT,FEW,0.00,WeatherDisplay:10.37,2013-02-10 10:36:00,
2013-02-10 04:41:00,51.2,39.8,30.05,ESE,119,1.1,1.1,65,0.00,SCT,FEW,0.00,WeatherDisplay:10.37,2013-02-10 10:41:00,
2013-02-10 04:46:00,51.2,39.4,30.06,SSE,157,4.6,4.6,64,0.00,SCT,FEW,0.00,WeatherDisplay:10.37,2013-02-10 10:46:00,
2013-02-10 04:51:00,51.3,39.5,30.06,SE,124,3.5,3.5,64,0.00,SCT,FEW,0.00,WeatherDisplay:10.37,2013-02-10 10:51:00,
2013-02-10 04:56:00,51.4,39.2,30.06,SSE,159,2.3,2.3,63,0.00,SCT,FEW,0.00,WeatherDisplay:10.37,2013-02-10 10:56:00,
2013-02-10 05:01:00,51.6,39.0,30.05,SSE,155,2.3,2.3,62,0.00,FEW,,0.00,WeatherDisplay:10.37,2013-02-10 11:01:00,
2013-02-10 05:06:00,51.9,39.3,30.05,SE,146,4.6,4.6,62,0.00,FEW,,0.00,WeatherDisplay:10.37,2013-02-10 11:06:00,
2013-02-10 05:11:00,52.2,38.7,30.05,SE,129,8.1,8.1,60,0.00,FEW,,0.00,WeatherDisplay:10.37,2013-02-10 11:11:00,
2013-02-10 05:16:00,52.6,38.7,30.04,South,175,6.9,6.9,59,0.00,FEW,,0.00,WeatherDisplay:10.37,2013-02-10 11:16:00,
2013-02-10 05:21:00,52.8,38.4,30.04,SSE,148,8.1,8.1,58,0.00,FEW,,0.00,WeatherDisplay:10.37,2013-02-10 11:21:00,
2013-02-10 05:26:00,53.0,38.6,30.04,SSE,166,3.5,3.5,58,0.00,FEW,,0.00,WeatherDisplay:10.37,2013-02-10 11:26:00,
2013-02-10 05:31:00,53.3,38.4,30.04,SSW,204,6.9,6.9,57,0.00,FEW,,0.00,WeatherDisplay:10.37,2013-02-10 11:31:00,
2013-02-10 05:36:00,53.4,38.5,30.04,SSE,156,4.6,4.6,57,0.00,FEW,,0.00,WeatherDisplay:10.37,2013-02-10 11:36:00,
2013-02-10 05:41:00,53.5,39.1,30.04,SSE,148,5.8,5.8,58,0.00,FEW,,0.00,WeatherDisplay:10.37,2013-02-10 11:41:00,
2013-02-10 05:46:00,53.5,38.6,30.04,SE,130,5.8,5.8,57,0.00,FEW,,0.00,WeatherDisplay:10.37,2013-02-10 11:46:00,
2013-02-10 05:51:00,53.6,38.7,30.04,SSE,161,5.8,5.8,57,0.00,FEW,,0.00,WeatherDisplay:10.37,2013-02-10 11:51:00,
2013-02-10 05:56:00,53.6,39.2,30.03,SE,141,8.1,8.1,58,0.00,FEW,,0.00,WeatherDisplay:10.37,2013-02-10 11:56:00,
2013-02-10 06:01:00,53.6,38.7,30.04,SSE,150,5.8,5.8,57,0.00,,FEW,0.00,WeatherDisplay:10.37,2013-02-10 12:01:00,
2013-02-10 06:06:00,53.6,39.2,30.05,SE,129,5.8,5.8,58,0.00,,FEW,0.00,WeatherDisplay:10.37,2013-02-10 12:06:00,
2013-02-10 06:11:00,53.6,39.2,30.05,South,186,8.1,8.1,58,0.00,,FEW,0.00,WeatherDisplay:10.37,2013-02-10 12:11:00,
2013-02-10 06:16:00,53.8,38.9,30.04,SE,139,8.1,8.1,57,0.00,,FEW,0.00,WeatherDisplay:10.37,2013-02-10 12:16:00,
2013-02-10 06:21:00,53.7,38.8,30.04,SSE,158,8.1,8.1,57,0.00,OVC,FEW,0.00,WeatherDisplay:10.37,2013-02-10 12:21:00,
2013-02-10 06:26:00,53.8,39.4,30.03,SE,132,4.6,4.6,58,0.00,OVC,FEW,0.00,WeatherDisplay:10.37,2013-02-10 12:26:00,
2013-02-10 06:31:00,53.7,38.8,30.04,SE,136,10.4,10.4,57,0.00,OVC,FEW,0.00,WeatherDisplay:10.37,2013-02-10 12:31:00,
2013-02-10 06:36:00,53.8,39.4,30.04,ESE,119,6.9,6.9,58,0.00,OVC,FEW,0.00,WeatherDisplay:10.37,2013-02-10 12:36:00,
2013-02-10 06:41:00,53.7,39.3,30.04,SSE,147,10.4,10.4,58,0.00,OVC,FEW,0.00,WeatherDisplay:10.37,2013-02-10 12:41:00,
2013-02-10 06:46:00,53.8,38.9,30.04,SSW,203,8.1,8.1,57,0.00,OVC,FEW,0.00,WeatherDisplay:10.37,2013-02-10 12:46:00,
2013-02-10 06:51:00,53.9,39.9,30.04,ESE,112,10.4,10.4,59,0.00,OVC,FEW,0.00,WeatherDisplay:10.37,2013-02-10 12:51:00,
2013-02-10 06:56:00,53.5,39.9,30.04,SE,134,4.6,4.6,60,0.00,OVC,FEW,0.00,WeatherDisplay:10.37,2013-02-10 12:56:00,
2013-02-10 07:01:00,53.2,40.1,30.04,South,190,10.4,10.4,61,0.00,SCT,FEW,0.00,WeatherDisplay:10.37,2013-02-10 13:01:00,
2013-02-10 07:06:00,53.4,39.4,30.04,SE,136,6.9,6.9,59,0.00,SCT,FEW,0.00,WeatherDisplay:10.37,2013-02-10 13:06:00,
2013-02-10 07:11:00,53.5,39.9,30.04,South,169,13.8,13.8,60,0.00,SCT,FEW,0.00,WeatherDisplay:10.37,2013-02-10 13:11:00,
2013-02-10 07:16:00,53.6,39.6,30.04,SE,140,10.4,10.4,59,0.00,SCT,FEW,0.00,WeatherDisplay:10.37,2013-02-10 13:16:00,
2013-02-10 07:21:00,53.7,39.3,30.04,WNW,286,8.1,8.1,58,0.00,SCT,FEW,0.00,WeatherDisplay:10.37,2013-02-10 13:21:00,
2013-02-10 07:26:00,53.8,39.8,30.03,SW,223,5.8,5.8,59,0.00,SCT,FEW,0.00,WeatherDisplay:10.37,2013-02-10 13:26:00,
2013-02-10 07:31:00,53.7,39.3,30.03,SSE,160,8.1,8.1,58,0.00,SCT,FEW,0.00,WeatherDisplay:10.37,2013-02-10 13:31:00,
2013-02-10 07:36:00,53.9,39.9,30.03,SE,140,6.9,6.9,59,0.00,SCT,FEW,0.00,WeatherDisplay:10.37,2013-02-10 13:36:00,
2013-02-10 07:41:00,54.0,40.0,30.04,South,184,8.1,8.1,59,0.00,SCT,FEW,0.00,WeatherDisplay:10.37,2013-02-10 13:41:00,
2013-02-10 07:46:00,54.1,40.1,30.03,SSE,159,6.9,6.9,59,0.00,SCT,FEW,0.00,WeatherDisplay:10.37,2013-02-10 13:46:00,
2013-02-10 07:51:00,54.2,39.7,30.03,SSE,166,5.8,5.8,58,0.00,SCT,FEW,0.00,WeatherDisplay:10.37,2013-02-10 13:51:00,
2013-02-10 07:56:00,54.3,39.8,30.03,SSW,196,5.8,5.8,58,0.00,SCT,FEW,0.00,WeatherDisplay:10.37,2013-02-10 13:56:00,
2013-02-10 08:01:00,54.6,40.1,30.02,SE,140,5.8,5.8,58,0.00,SCT,FEW,0.00,WeatherDisplay:10.37,2013-02-10 14:01:00,
2013-02-10 08:06:00,54.8,39.8,30.02,SE,138,6.9,6.9,57,0.00,SCT,FEW,0.00,WeatherDisplay:10.37,2013-02-10 14:06:00,
2013-02-10 08:11:00,55.0,40.0,30.02,ESE,117,8.1,8.1,57,0.00,SCT,FEW,0.00,WeatherDisplay:10.37,2013-02-10 14:11:00,
2013-02-10 08:16:00,55.3,39.9,30.01,SE,134,6.9,6.9,56,0.00,SCT,FEW,0.00,WeatherDisplay:10.37,2013-02-10 14:16:00,
2013-02-10 08:21:00,55.5,40.0,30.01,SSE,147,4.6,4.6,56,0.00,SCT,FEW,0.00,WeatherDisplay:10.37,2013-02-10 14:21:00,
2013-02-10 08:26:00,55.7,40.7,30.01,East,92,5.8,5.8,57,0.00,SCT,FEW,0.00,WeatherDisplay:10.37,2013-02-10 14:26:00,
2013-02-10 08:31:00,55.7,40.2,30.00,SE,135,4.3,5.3,56,0.00,SCT,FEW,0.00,WeatherDisplay:10.37,2013-02-10 14:31:00,
2013-02-10 08:36:00,55.7,40.2,29.99,ESE,105,5.8,5.8,56,0.00,SCT,FEW,0.00,WeatherDisplay:10.37,2013-02-10 14:36:00,
2013-02-10 08:41:00,55.8,40.3,29.98,SE,132,10.4,10.4,56,0.00,SCT,FEW,0.00,WeatherDisplay:10.37,2013-02-10 14:41:00,
2013-02-10 08:46:00,56.0,40.1,29.98,SE,140,9.2,9.2,55,0.00,SCT,FEW,0.00,WeatherDisplay:10.37,2013-02-10 14:46:00,
2013-02-10 08:51:00,56.2,40.2,29.98,South,170,5.8,5.8,55,0.00,SCT,FEW,0.00,WeatherDisplay:10.37,2013-02-10 14:51:00,
2013-02-10 08:56:00,56.6,39.7,29.98,SW,216,10.4,10.4,53,0.00,SCT,FEW,0.00,WeatherDisplay:10.37,2013-02-10 14:56:00,
2013-02-10 09:01:00,57.0,40.0,29.98,SW,221,11.5,11.5,53,0.00,SCT,FEW,0.00,WeatherDisplay:10.37,2013-02-10 15:01:00,
2013-02-10 09:07:00,57.4,40.4,29.98,SSE,152,8.1,8.1,53,0.00,SCT,FEW,0.00,WeatherDisplay:10.37,2013-02-10 15:07:00,
2013-02-10 09:12:00,57.7,40.7,29.98,South,174,16.1,16.1,53,0.00,SCT,FEW,0.00,WeatherDisplay:10.37,2013-02-10 15:12:00,
2013-02-10 09:17:00,57.9,40.4,29.98,SE,130,8.6,8.6,52,0.00,SCT,FEW,0.00,WeatherDisplay:10.37,2013-02-10 15:17:00,
2013-02-10 09:22:00,58.1,40.6,29.97,SSW,198,19.6,19.6,52,0.00,CLR,FEW,0.00,WeatherDisplay:10.37,2013-02-10 15:22:00,
2013-02-10 09:27:00,58.4,40.8,29.96,SSE,148,8.1,8.1,52,0.00,CLR,FEW,0.00,WeatherDisplay:10.37,2013-02-10 15:27:00,
2013-02-10 09:32:00,58.7,40.6,29.96,ESE,113,18.2,18.2,51,0.00,CLR,FEW,0.00,WeatherDisplay:10.37,2013-02-10 15:32:00,
2013-02-10 09:37:00,58.8,40.7,29.95,West,269,12.7,12.7,51,0.00,CLR,FEW,0.00,WeatherDisplay:10.37,2013-02-10 15:37:00,
2013-02-10 09:42:00,59.0,40.9,29.96,ESE,114,11.5,11.5,51,0.00,CLR,FEW,0.00,WeatherDisplay:10.37,2013-02-10 15:42:00,
2013-02-10 09:47:00,59.1,41.0,29.96,ESE,115,9.2,9.2,51,0.00,CLR,FEW,0.00,WeatherDisplay:10.37,2013-02-10 15:47:00,
2013-02-10 09:52:00,59.4,41.3,29.96,SE,134,19.6,19.6,51,0.00,CLR,FEW,0.00,WeatherDisplay:10.37,2013-02-10 15:52:00,
2013-02-10 09:57:00,59.6,41.4,29.96,South,175,16.1,16.1,51,0.00,CLR,FEW,0.00,WeatherDisplay:10.37,2013-02-10 15:57:00,
2013-02-10 10:02:00,59.6,41.9,29.96,SSW,202,16.1,16.1,52,0.00,CLR,FEW,0.00,WeatherDisplay:10.37,2013-02-10 16:02:00,
2013-02-10 10:07:00,59.6,41.9,29.94,SE,140,13.8,13.8,52,0.00,CLR,FEW,0.00,WeatherDisplay:10.37,2013-02-10 16:07:00,
2013-02-10 10:12:00,59.6,42.4,29.94,SSE,164,10.4,10.4,53,0.00,CLR,FEW,0.00,WeatherDisplay:10.37,2013-02-10 16:12:00,
2013-02-10 10:17:00,59.6,42.4,29.95,SSE,155,12.7,12.7,53,0.00,CLR,FEW,0.00,WeatherDisplay:10.37,2013-02-10 16:17:00,
2013-02-10 10:22:00,59.4,42.7,29.95,ESE,109,12.7,12.7,54,0.00,CLR,FEW,0.00,WeatherDisplay:10.37,2013-02-10 16:22:00,
2013-02-10 10:27:00,59.3,42.6,29.95,SSE,159,6.9,6.9,54,0.00,CLR,FEW,0.00,WeatherDisplay:10.37,2013-02-10 16:27:00,
2013-02-10 10:32:00,59.2,42.6,29.95,South,190,10.4,10.4,54,0.00,CLR,FEW,0.00,WeatherDisplay:10.37,2013-02-10 16:32:00,
2013-02-10 10:37:00,59.2,42.6,29.95,WSW,241,16.1,16.1,54,0.00,CLR,FEW,0.00,WeatherDisplay:10.37,2013-02-10 16:37:00,
2013-02-10 10:42:00,59.2,43.5,29.94,SE,140,21.9,21.9,56,0.00,CLR,FEW,0.00,WeatherDisplay:10.37,2013-02-10 16:42:00,
2013-02-10 10:47:00,59.0,43.8,29.94,SSW,213,8.1,8.1,57,0.00,CLR,FEW,0.00,WeatherDisplay:10.37,2013-02-10 16:47:00,
2013-02-10 10:52:00,58.9,44.1,29.94,South,169,10.4,10.4,58,0.00,CLR,FEW,0.00,WeatherDisplay:10.37,2013-02-10 16:52:00,
2013-02-10 10:57:00,58.7,44.4,29.94,SSW,200,6.9,6.9,59,0.00,CLR,FEW,0.00,WeatherDisplay:10.37,2013-02-10 16:57:00,
2013-02-10 11:02:00,58.6,44.3,29.94,South,186,8.1,8.1,59,0.00,BKN,FEW,0.00,WeatherDisplay:10.37,2013-02-10 17:02:00,
2013-02-10 11:07:00,58.5,44.7,29.94,SSW,193,8.1,8.1,60,0.00,BKN,FEW,0.00,WeatherDisplay:10.37,2013-02-10 17:07:00,
2013-02-10 11:12:00,58.4,45.0,29.93,South,182,10.4,10.4,61,0.00,BKN,FEW,0.00,WeatherDisplay:10.37,2013-02-10 17:12:00,
2013-02-10 11:17:00,58.4,45.4,29.94,South,180,12.7,12.7,62,0.00,BKN,FEW,0.00,WeatherDisplay:10.37,2013-02-10 17:17:00,
2013-02-10 11:22:00,58.2,45.7,29.93,SSE,148,12.7,12.7,63,0.00,BKN,FEW,0.00,WeatherDisplay:10.37,2013-02-10 17:22:00,
2013-02-10 11:27:00,58.0,46.7,29.93,SSW,202,11.5,11.5,66,0.00,BKN,FEW,0.00,WeatherDisplay:10.37,2013-02-10 17:27:00,
2013-02-10 11:32:00,57.7,46.4,29.94,SSE,155,9.2,9.2,66,0.00,BKN,FEW,0.00,WeatherDisplay:10.37,2013-02-10 17:32:00,
2013-02-10 11:37:00,57.4,47.3,29.97,WSW,255,6.9,6.9,69,0.00,OVC,FEW,0.00,WeatherDisplay:10.37,2013-02-10 17:37:00,
2013-02-10 11:42:00,56.8,47.5,29.96,SSE,158,8.1,8.1,71,0.01,RA,FEW,0.01,WeatherDisplay:10.37,2013-02-10 17:42:00,
2013-02-10 11:47:00,56.0,47.8,29.96,South,190,6.9,6.9,74,0.02,RA,FEW,0.02,WeatherDisplay:10.37,2013-02-10 17:47:00,
2013-02-10 11:52:00,55.3,48.2,29.94,SSW,206,8.1,8.1,77,0.02,RA,FEW,0.02,WeatherDisplay:10.37,2013-02-10 17:52:00,
2013-02-10 11:57:00,54.7,49.0,29.95,ESE,123,4.6,4.6,81,0.04,RA,FEW,0.04,WeatherDisplay:10.37,2013-02-10 17:57:00,
2013-02-10 12:02:00,54.1,49.1,29.95,SSE,152,5.8,5.8,83,0.05,-RA,FEW,0.05,WeatherDisplay:10.37,2013-02-10 18:02:00,
2013-02-10 12:07:00,53.7,49.0,29.95,SE,144,8.1,8.1,84,0.05,-RA,FEW,0.05,WeatherDisplay:10.37,2013-02-10 18:07:00,
2013-02-10 12:12:00,53.3,49.2,29.97,SSE,168,3.5,3.5,86,0.06,-RA,FEW,0.06,WeatherDisplay:10.37,2013-02-10 18:12:00,
2013-02-10 12:17:00,53.0,49.2,29.98,SSW,207,8.1,8.1,87,0.08,RA,FEW,0.09,WeatherDisplay:10.37,2013-02-10 18:17:00,
2013-02-10 12:22:00,52.5,49.7,29.99,SW,223,9.2,9.2,90,0.12,RA,FEW,0.12,WeatherDisplay:10.37,2013-02-10 18:22:00,
2013-02-10 12:27:00,52.3,49.5,29.98,SSE,156,4.6,4.6,90,0.17,RA,FEW,0.18,WeatherDisplay:10.37,2013-02-10 18:27:00,
2013-02-10 12:32:00,52.1,49.6,29.98,SSW,197,3.5,3.5,91,0.20,-RA,FEW,0.20,WeatherDisplay:10.37,2013-02-10 18:32:00,
2013-02-10 12:37:00,52.0,49.7,29.98,SSE,161,5.4,5.4,92,0.20,-RA,FEW,0.21,WeatherDisplay:10.37,2013-02-10 18:37:00,
2013-02-10 12:42:00,52.0,50.0,29.98,SSW,200,5.8,5.8,93,0.21,-RA,FEW,0.22,WeatherDisplay:10.37,2013-02-10 18:42:00,
2013-02-10 12:47:00,51.9,49.9,29.97,South,175,5.8,5.8,93,0.21,-RA,FEW,0.24,WeatherDisplay:10.37,2013-02-10 18:47:00,
2013-02-10 12:52:00,51.9,49.9,29.97,South,173,3.5,3.5,93,0.22,-RA,FEW,0.25,WeatherDisplay:10.37,2013-02-10 18:52:00,
2013-02-10 12:57:00,51.9,50.2,29.96,SSE,168,2.3,2.3,94,0.22,-RA,FEW,0.26,WeatherDisplay:10.37,2013-02-10 18:57:00,
2013-02-10 13:02:00,51.9,50.2,29.96,SE,142,6.9,6.9,94,0.23,RA,FEW,0.28,WeatherDisplay:10.37,2013-02-10 19:02:00,
2013-02-10 13:07:00,51.9,49.9,29.96,SSE,154,5.8,5.8,93,0.24,RA,FEW,0.29,WeatherDisplay:10.37,2013-02-10 19:07:00,
2013-02-10 13:12:00,51.8,49.8,29.95,SE,131,5.8,5.8,93,0.24,RA,FEW,0.30,WeatherDisplay:10.37,2013-02-10 19:12:00,
2013-02-10 13:17:00,51.7,49.7,29.94,South,173,16.1,16.1,93,0.23,-RA,FEW,0.32,WeatherDisplay:10.37,2013-02-10 19:17:00,
2013-02-10 13:22:00,51.6,49.6,29.92,South,170,12.7,12.7,93,0.20,-RA,FEW,0.33,WeatherDisplay:10.37,2013-02-10 19:22:00,
2013-02-10 13:27:00,51.5,49.5,29.92,SSE,148,18.4,18.4,93,0.17,-RA,FEW,0.34,WeatherDisplay:10.37,2013-02-10 19:27:00,
2013-02-10 13:32:00,51.4,49.4,29.91,SSE,153,16.1,16.1,93,0.14,-RA,FEW,0.34,WeatherDisplay:10.37,2013-02-10 19:32:00,
2013-02-10 13:37:00,51.4,49.4,29.90,SE,127,11.5,11.5,93,0.14,-RA,FEW,0.34,WeatherDisplay:10.37,2013-02-10 19:37:00,
2013-02-10 13:42:00,51.4,49.4,29.89,East,101,8.1,8.1,93,0.13,-RA,FEW,0.35,WeatherDisplay:10.37,2013-02-10 19:42:00,
2013-02-10 13:48:00,51.4,49.4,29.89,SW,220,11.5,11.5,93,0.12,-RA,FEW,0.36,WeatherDisplay:10.37,2013-02-10 19:48:00,
2013-02-10 13:53:00,51.4,49.4,29.87,ESE,115,16.1,16.1,93,0.12,-RA,FEW,0.36,WeatherDisplay:10.37,2013-02-10 19:53:00,
2013-02-10 13:58:00,51.4,49.4,29.86,SSE,159,13.8,13.8,93,0.10,-RA,FEW,0.36,WeatherDisplay:10.37,2013-02-10 19:58:00,
2013-02-10 14:03:00,51.4,49.4,29.82,SE,141,15.0,15.0,93,0.08,OVC,FEW,0.36,WeatherDisplay:10.37,2013-02-10 20:03:00,
2013-02-10 14:08:00,51.2,49.0,29.80,SE,131,11.5,11.5,92,0.08,RA,FEW,0.37,WeatherDisplay:10.37,2013-02-10 20:08:00,
2013-02-10 14:13:00,51.2,49.2,29.80,SSE,157,11.5,11.5,93,0.07,RA,FEW,0.37,WeatherDisplay:10.37,2013-02-10 20:13:00,
2013-02-10 14:18:00,51.2,49.2,29.80,SE,136,10.4,10.4,93,0.05,OVC,FEW,0.37,WeatherDisplay:10.37,2013-02-10 20:18:00,
2013-02-10 14:23:00,51.4,49.4,29.81,SE,128,13.8,13.8,93,0.04,-DZ,FEW,0.37,WeatherDisplay:10.37,2013-02-10 20:23:00,
2013-02-10 14:28:00,51.5,49.3,29.81,ESE,118,18.4,18.4,92,0.03,-DZ,FEW,0.37,WeatherDisplay:10.37,2013-02-10 20:28:00,
2013-02-10 14:33:00,51.6,49.1,29.81,SE,131,19.6,19.6,91,0.03,-DZ,FEW,0.37,WeatherDisplay:10.37,2013-02-10 20:33:00,
2013-02-10 14:38:00,51.7,49.2,29.82,SE,132,11.5,11.5,91,0.03,BKN,FEW,0.37,WeatherDisplay:10.37,2013-02-10 20:38:00,
2013-02-10 14:43:00,51.8,49.3,29.82,SE,124,9.2,9.2,91,0.02,BKN,FEW,0.37,WeatherDisplay:10.37,2013-02-10 20:43:00,
2013-02-10 14:48:00,52.0,49.5,29.83,South,177,12.7,12.7,91,0.01,BKN,FEW,0.37,WeatherDisplay:10.37,2013-02-10 20:48:00,
2013-02-10 14:53:00,52.0,49.5,29.84,SSE,149,8.1,8.1,91,0.01,BKN,FEW,0.37,WeatherDisplay:10.37,2013-02-10 20:53:00,
2013-02-10 14:58:00,52.2,49.4,29.85,SSE,167,9.2,9.2,90,0.01,BKN,FEW,0.37,WeatherDisplay:10.37,2013-02-10 20:58:00,
2013-02-10 15:03:00,52.4,49.6,29.85,East,96,9.2,9.2,90,0.01,BKN,FEW,0.37,WeatherDisplay:10.37,2013-02-10 21:03:00,
2013-02-10 15:08:00,52.6,49.8,29.85,SE,130,11.5,11.5,90,0.00,BKN,FEW,0.37,WeatherDisplay:10.37,2013-02-10 21:08:00,
2013-02-10 15:13:00,52.8,49.9,29.84,East,84,7.5,7.5,90,0.00,BKN,FEW,0.37,WeatherDisplay:10.37,2013-02-10 21:13:00,
2013-02-10 15:18:00,53.1,49.9,29.84,SE,130,11.5,11.5,89,0.00,BKN,FEW,0.37,WeatherDisplay:10.37,2013-02-10 21:18:00,
2013-02-10 15:23:00,53.3,50.1,29.84,SE,137,8.1,8.1,89,0.00,BKN,FEW,0.37,WeatherDisplay:10.37,2013-02-10 21:23:00,
2013-02-10 15:28:00,53.5,50.0,29.84,SSW,212,15.0,15.0,88,0.00,BKN,FEW,0.37,WeatherDisplay:10.37,2013-02-10 21:28:00,
2013-02-10 15:33:00,53.5,49.7,29.84,SSE,153,12.7,12.7,87,0.00,BKN,FEW,0.37,WeatherDisplay:10.37,2013-02-10 21:33:00,
2013-02-10 15:38:00,53.7,49.9,29.83,South,180,8.1,8.1,87,0.00,BKN,FEW,0.37,WeatherDisplay:10.37,2013-02-10 21:38:00,
2013-02-10 15:43:00,53.7,49.9,29.83,SSE,166,11.5,11.5,87,0.00,BKN,FEW,0.37,WeatherDisplay:10.37,2013-02-10 21:43:00,
2013-02-10 15:48:00,53.9,50.1,29.83,SSE,150,8.1,8.1,87,0.00,BKN,FEW,0.37,WeatherDisplay:10.37,2013-02-10 21:48:00,
2013-02-10 15:53:00,53.9,50.1,29.83,SE,138,9.2,9.2,87,0.00,BKN,FEW,0.37,WeatherDisplay:10.37,2013-02-10 21:53:00,
2013-02-10 15:58:00,53.9,50.1,29.83,East,88,12.7,12.7,87,0.00,BKN,FEW,0.37,WeatherDisplay:10.37,2013-02-10 21:58:00,
2013-02-10 16:03:00,54.1,50.0,29.83,ESE,119,10.4,10.4,86,0.00,OVC,FEW,0.37,WeatherDisplay:10.37,2013-02-10 22:03:00,
2013-02-10 16:08:00,54.1,50.0,29.82,East,86,10.4,10.4,86,0.00,OVC,FEW,0.37,WeatherDisplay:10.37,2013-02-10 22:08:00,
2013-02-10 16:13:00,54.1,50.0,29.83,SSW,192,10.4,10.4,86,0.00,OVC,FEW,0.37,WeatherDisplay:10.37,2013-02-10 22:13:00,
2013-02-10 16:18:00,54.1,50.0,29.84,South,171,11.5,11.5,86,0.00,OVC,FEW,0.37,WeatherDisplay:10.37,2013-02-10 22:18:00,
2013-02-10 16:23:00,54.2,50.1,29.83,SSE,153,8.1,8.1,86,0.00,OVC,FEW,0.37,WeatherDisplay:10.37,2013-02-10 22:23:00,
2013-02-10 16:28:00,54.2,50.1,29.82,SSW,196,8.1,8.1,86,0.00,OVC,FEW,0.37,WeatherDisplay:10.37,2013-02-10 22:28:00,
2013-02-10 16:33:00,54.2,50.1,29.82,SSE,149,9.2,9.2,86,0.00,OVC,FEW,0.37,WeatherDisplay:10.37,2013-02-10 22:33:00,
2013-02-10 16:38:00,54.2,50.1,29.83,ESE,111,8.1,8.1,86,0.00,OVC,FEW,0.37,WeatherDisplay:10.37,2013-02-10 22:38:00,
2013-02-10 16:43:00,54.2,50.1,29.82,ESE,106,8.1,8.1,86,0.00,OVC,FEW,0.37,WeatherDisplay:10.37,2013-02-10 22:43:00,
2013-02-10 16:48:00,54.2,50.1,29.83,SSE,167,5.8,5.8,86,0.00,OVC,FEW,0.37,WeatherDisplay:10.37,2013-02-10 22:48:00,
2013-02-10 16:53:00,54.1,50.3,29.82,SSE,158,9.2,9.2,87,0.00,OVC,FEW,0.37,WeatherDisplay:10.37,2013-02-10 22:53:00,
2013-02-10 16:58:00,54.2,50.4,29.82,SSW,211,5.8,5.8,87,0.00,OVC,FEW,0.37,WeatherDisplay:10.37,2013-02-10 22:58:00,
2013-02-10 17:03:00,54.2,50.4,29.81,SE,141,8.1,8.1,87,0.00,OVC,FEW,0.37,WeatherDisplay:10.37,2013-02-10 23:03:00,
2013-02-10 17:08:00,54.1,50.3,29.81,SE,131,3.5,3.6,87,0.00,OVC,FEW,0.37,WeatherDisplay:10.37,2013-02-10 23:08:00,
2013-02-10 17:13:00,54.1,50.3,29.81,South,169,10.4,10.4,87,0.00,OVC,FEW,0.37,WeatherDisplay:10.37,2013-02-10 23:13:00,
2013-02-10 17:18:00,54.1,50.3,29.81,SE,138,6.9,6.9,87,0.00,OVC,FEW,0.37,WeatherDisplay:10.37,2013-02-10 23:18:00,
2013-02-10 17:23:00,54.1,50.6,29.81,SSW,200,10.4,10.4,88,0.00,OVC,FEW,0.37,WeatherDisplay:10.37,2013-02-10 23:23:00,
2013-02-10 17:28:00,54.1,50.3,29.81,SSE,153,4.3,4.3,87,0.00,OVC,FEW,0.37,WeatherDisplay:10.37,2013-02-10 23:28:00,
2013-02-10 17:33:00,54.1,50.6,29.81,South,173,4.6,4.6,88,0.00,OVC,FEW,0.37,WeatherDisplay:10.37,2013-02-10 23:33:00,
2013-02-10 17:38:00,54.1,50.6,29.81,South,171,8.1,8.1,88,0.00,OVC,FEW,0.37,WeatherDisplay:10.37,2013-02-10 23:38:00,
2013-02-10 17:43:00,54.2,50.7,29.81,SE,144,3.5,4.4,88,0.00,OVC,FEW,0.37,WeatherDisplay:10.37,2013-02-10 23:43:00,
2013-02-10 17:48:00,54.2,50.7,29.81,SSW,200,5.8,5.8,88,0.00,OVC,FEW,0.37,WeatherDisplay:10.37,2013-02-10 23:48:00,
2013-02-10 17:53:00,54.2,50.7,29.81,SSE,152,3.5,3.5,88,0.00,OVC,FEW,0.37,WeatherDisplay:10.37,2013-02-10 23:53:00,
2013-02-10 17:59:00,54.3,50.8,29.81,ESE,117,3.5,3.7,88,0.00,OVC,FEW,0.37,WeatherDisplay:10.37,2013-02-10 23:59:00,
2013-02-10 18:04:00,54.3,50.8,29.81,South,191,3.5,3.5,88,0.00,OVC,FEW,0.37,WeatherDisplay:10.37,2013-02-11 00:04:00,
2013-02-10 18:09:00,54.4,51.2,29.82,SSW,209,15.0,15.0,89,0.00,OVC,FEW,0.37,WeatherDisplay:10.37,2013-02-11 00:09:00,
2013-02-10 18:14:00,54.8,51.6,29.81,SW,214,6.9,6.9,89,0.00,OVC,FEW,0.37,WeatherDisplay:10.37,2013-02-11 00:14:00,
2013-02-10 18:19:00,54.9,51.7,29.81,SE,138,3.5,3.5,89,0.00,OVC,FEW,0.37,WeatherDisplay:10.37,2013-02-11 00:19:00,
2013-02-10 18:24:00,55.0,51.8,29.82,SSE,160,8.1,8.1,89,0.00,OVC,FEW,0.37,WeatherDisplay:10.37,2013-02-11 00:24:00,
2013-02-10 18:29:00,55.1,51.9,29.82,East,94,8.1,8.1,89,0.00,OVC,FEW,0.37,WeatherDisplay:10.37,2013-02-11 00:29:00,
2013-02-10 18:34:00,55.3,52.1,29.82,South,169,6.9,6.9,89,0.00,OVC,FEW,0.37,WeatherDisplay:10.37,2013-02-11 00:34:00,
2013-02-10 18:39:00,55.3,52.1,29.82,SE,137,12.7,12.7,89,0.00,OVC,FEW,0.37,WeatherDisplay:10.37,2013-02-11 00:39:00,
2013-02-10 18:44:00,55.5,52.3,29.82,SW,221,5.8,5.8,89,0.00,OVC,FEW,0.37,WeatherDisplay:10.37,2013-02-11 00:44:00,
2013-02-10 18:49:00,55.6,52.4,29.81,ESE,119,4.6,4.6,89,0.00,OVC,FEW,0.37,WeatherDisplay:10.37,2013-02-11 00:49:00,
2013-02-10 18:54:00,55.7,52.5,29.81,SSW,209,5.8,5.8,89,0.00,OVC,FEW,0.37,WeatherDisplay:10.37,2013-02-11 00:54:00,
2013-02-10 18:59:00,55.8,52.6,29.82,South,178,4.6,4.6,89,0.00,OVC,FEW,0.37,WeatherDisplay:10.37,2013-02-11 00:59:00,
2013-02-10 19:04:00,55.9,52.7,29.82,SSW,213,4.6,4.6,89,0.00,OVC,FEW,0.37,WeatherDisplay:10.37,2013-02-11 01:04:00,
2013-02-10 19:09:00,56.0,52.8,29.83,SSW,196,5.8,5.8,89,0.00,OVC,FEW,0.37,WeatherDisplay:10.37,2013-02-11 01:09:00,
2013-02-10 19:14:00,56.2,53.3,29.83,SSW,202,2.3,2.3,90,0.00,OVC,FEW,0.37,WeatherDisplay:10.37,2013-02-11 01:14:00,
2013-02-10 19:19:00,56.3,53.4,29.83,WSW,240,4.6,4.6,90,0.00,OVC,FEW,0.37,WeatherDisplay:10.37,2013-02-11 01:19:00,
2013-02-10 19:24:00,56.4,53.5,29.83,South,180,4.6,4.6,90,0.00,OVC,FEW,0.37,WeatherDisplay:10.37,2013-02-11 01:24:00,
2013-02-10 19:29:00,56.4,53.5,29.83,SW,224,6.9,6.9,90,0.00,OVC,FEW,0.37,WeatherDisplay:10.37,2013-02-11 01:29:00,
2013-02-10 19:34:00,56.4,53.5,29.83,ESE,117,4.6,4.6,90,0.00,OVC,FEW,0.37,WeatherDisplay:10.37,2013-02-11 01:34:00,
2013-02-10 19:39:00,56.5,53.6,29.83,SW,227,6.9,6.9,90,0.00,OVC,FEW,0.37,WeatherDisplay:10.37,2013-02-11 01:39:00,
2013-02-10 19:44:00,56.6,53.7,29.84,West,262,2.3,2.3,90,0.00,OVC,FEW,0.37,WeatherDisplay:10.37,2013-02-11 01:44:00,
2013-02-10 19:49:00,56.7,54.1,29.84,SW,220,9.2,9.2,91,0.00,OVC,FEW,0.37,WeatherDisplay:10.37,2013-02-11 01:49:00,
2013-02-10 19:54:00,56.7,54.1,29.84,SSW,207,8.1,8.1,91,0.00,OVC,FEW,0.37,WeatherDisplay:10.37,2013-02-11 01:54:00,
2013-02-10 19:59:00,56.7,54.1,29.85,South,170,5.8,5.8,91,0.00,OVC,FEW,0.37,WeatherDisplay:10.37,2013-02-11 01:59:00,
2013-02-10 20:04:00,56.7,54.1,29.84,South,172,8.1,8.1,91,0.00,OVC,FEW,0.37,WeatherDisplay:10.37,2013-02-11 02:04:00,
2013-02-10 20:09:00,56.6,54.3,29.84,WSW,250,12.7,12.7,92,0.00,OVC,FEW,0.37,WeatherDisplay:10.37,2013-02-11 02:09:00,
2013-02-10 20:14:00,56.5,54.5,29.85,WSW,255,9.6,9.6,93,0.00,OVC,FEW,0.37,WeatherDisplay:10.37,2013-02-11 02:14:00,
2013-02-10 20:19:00,56.3,54.3,29.85,SW,227,8.1,8.1,93,0.00,OVC,FEW,0.37,WeatherDisplay:10.37,2013-02-11 02:19:00,
2013-02-10 20:24:00,56.3,54.6,29.85,South,185,5.8,5.8,94,0.00,OVC,FEW,0.37,WeatherDisplay:10.37,2013-02-11 02:24:00,
2013-02-10 20:29:00,56.2,54.5,29.85,ENE,60,5.8,5.8,94,0.00,OVC,FEW,0.37,WeatherDisplay:10.37,2013-02-11 02:29:00,
2013-02-10 20:34:00,56.1,54.4,29.86,WSW,246,8.1,8.1,94,0.00,OVC,FEW,0.37,WeatherDisplay:10.37,2013-02-11 02:34:00,
2013-02-10 20:39:00,56.1,54.4,29.86,SSW,213,8.1,8.1,94,0.00,OVC,FEW,0.37,WeatherDisplay:10.37,2013-02-11 02:39:00,
2013-02-10 20:44:00,56.1,54.7,29.86,WSW,243,8.1,8.1,95,0.00,OVC,FEW,0.37,WeatherDisplay:10.37,2013-02-11 02:44:00,
2013-02-10 20:49:00,56.1,54.7,29.86,SSW,202,6.4,6.4,95,0.00,OVC,FEW,0.37,WeatherDisplay:10.37,2013-02-11 02:49:00,
2013-02-10 20:54:00,56.0,54.6,29.86,West,278,8.1,8.1,95,0.00,OVC,FEW,0.37,WeatherDisplay:10.37,2013-02-11 02:54:00,
2013-02-10 20:59:00,56.1,54.7,29.86,SW,221,6.9,6.9,95,0.00,OVC,FEW,0.37,WeatherDisplay:10.37,2013-02-11 02:59:00,
2013-02-10 21:04:00,56.2,54.8,29.86,South,188,6.9,6.9,95,0.00,OVC,FEW,0.37,WeatherDisplay:10.37,2013-02-11 03:04:00,
2013-02-10 21:09:00,56.2,54.8,29.87,SSW,207,8.1,8.1,95,0.00,OVC,FEW,0.37,WeatherDisplay:10.37,2013-02-11 03:09:00,
2013-02-10 21:14:00,56.2,54.8,29.86,SW,236,4.6,4.6,95,0.00,OVC,FEW,0.37,WeatherDisplay:10.37,2013-02-11 03:14:00,
2013-02-10 21:19:00,56.2,54.8,29.87,West,269,6.4,6.4,95,0.00,OVC,FEW,0.37,WeatherDisplay:10.37,2013-02-11 03:19:00,
2013-02-10 21:24:00,56.3,54.9,29.87,SW,232,3.5,3.5,95,0.00,OVC,FEW,0.37,WeatherDisplay:10.37,2013-02-11 03:24:00,
2013-02-10 21:29:00,56.2,54.8,29.87,WSW,242,5.4,5.4,95,0.00,OVC,FEW,0.37,WeatherDisplay:10.37,2013-02-11 03:29:00,
2013-02-10 21:34:00,56.3,54.9,29.87,SW,220,5.8,5.8,95,0.00,OVC,FEW,0.37,WeatherDisplay:10.37,2013-02-11 03:34:00,
2013-02-10 21:39:00,56.3,54.9,29.87,North,9,5.8,5.8,95,0.00,OVC,FEW,0.37,WeatherDisplay:10.37,2013-02-11 03:39:00,
2013-02-10 21:44:00,56.4,55.0,29.87,West,272,8.1,8.1,95,0.00,OVC,FEW,0.37,WeatherDisplay:10.37,2013-02-11 03:44:00,
2013-02-10 21:49:00,56.5,55.4,29.87,SSW,213,10.4,10.4,96,0.00,OVC,FEW,0.37,WeatherDisplay:10.37,2013-02-11 03:49:00,
2013-02-10 21:54:00,56.7,55.3,29.87,West,259,10.4,10.4,95,0.00,OVC,FEW,0.37,WeatherDisplay:10.37,2013-02-11 03:54:00,
2013-02-10 21:59:00,56.7,55.3,29.87,WNW,300,6.9,6.9,95,0.00,OVC,FEW,0.37,WeatherDisplay:10.37,2013-02-11 03:59:00,
2013-02-10 22:04:00,56.7,55.3,29.87,West,272,4.6,4.6,95,0.00,OVC,FEW,0.37,WeatherDisplay:10.37,2013-02-11 04:04:00,
2013-02-10 22:09:00,56.8,55.4,29.87,South,188,6.9,6.9,95,0.00,OVC,FEW,0.37,WeatherDisplay:10.37,2013-02-11 04:09:00,
2013-02-10 22:14:00,56.8,55.4,29.87,SSW,208,4.6,4.6,95,0.00,OVC,FEW,0.37,WeatherDisplay:10.37,2013-02-11 04:14:00,
2013-02-10 22:19:00,57.0,55.6,29.87,WSW,241,8.1,8.1,95,0.00,OVC,FEW,0.37,WeatherDisplay:10.37,2013-02-11 04:19:00,
2013-02-10 22:24:00,57.1,55.4,29.87,NNE,17,9.2,9.2,94,0.00,OVC,FEW,0.37,WeatherDisplay:10.37,2013-02-11 04:24:00,
2013-02-10 22:29:00,57.2,55.5,29.87,WSW,242,4.6,4.6,94,0.00,OVC,FEW,0.37,WeatherDisplay:10.37,2013-02-11 04:29:00,
2013-02-10 22:35:00,57.3,55.6,29.87,SW,219,8.1,8.1,94,0.00,OVC,FEW,0.37,WeatherDisplay:10.37,2013-02-11 04:35:00,
2013-02-10 22:40:00,57.4,55.7,29.88,SSW,207,4.6,4.6,94,0.00,OVC,FEW,0.37,WeatherDisplay:10.37,2013-02-11 04:40:00,
2013-02-10 22:45:00,57.5,55.8,29.88,WSW,241,4.6,4.6,94,0.00,OVC,FEW,0.37,WeatherDisplay:10.37,2013-02-11 04:45:00,
2013-02-10 22:50:00,57.5,55.8,29.88,West,275,5.8,5.8,94,0.00,OVC,FEW,0.37,WeatherDisplay:10.37,2013-02-11 04:50:00,
2013-02-10 22:55:00,57.6,55.9,29.88,SW,218,8.1,8.1,94,0.00,OVC,FEW,0.37,WeatherDisplay:10.37,2013-02-11 04:55:00,
2013-02-10 23:00:00,57.7,55.7,29.88,WSW,238,6.9,6.9,93,0.00,OVC,FEW,0.37,WeatherDisplay:10.37,2013-02-11 05:00:00,
2013-02-10 23:05:00,57.8,55.8,29.88,South,188,5.8,5.8,93,0.00,OVC,FEW,0.37,WeatherDisplay:10.37,2013-02-11 05:05:00,
2013-02-10 23:10:00,57.9,55.9,29.88,SSW,196,11.5,11.5,93,0.00,OVC,FEW,0.37,WeatherDisplay:10.37,2013-02-11 05:10:00,
2013-02-10 23:15:00,58.0,55.7,29.88,SW,227,8.1,8.1,92,0.00,OVC,FEW,0.37,WeatherDisplay:10.37,2013-02-11 05:15:00,
2013-02-10 23:20:00,58.0,55.7,29.88,SW,217,6.9,6.9,92,0.00,OVC,FEW,0.37,WeatherDisplay:10.37,2013-02-11 05:20:00,
2013-02-10 23:25:00,58.1,55.8,29.88,WSW,244,9.2,9.2,92,0.00,OVC,FEW,0.37,WeatherDisplay:10.37,2013-02-11 05:25:00,
2013-02-10 23:30:00,58.2,55.9,29.89,West,261,2.3,2.3,92,0.00,OVC,FEW,0.37,WeatherDisplay:10.37,2013-02-11 05:30:00,
2013-02-10 23:35:00,58.3,56.0,29.89,SSE,153,4.6,4.6,92,0.00,OVC,FEW,0.37,WeatherDisplay:10.37,2013-02-11 05:35:00,
2013-02-10 23:40:00,58.3,56.0,29.89,West,279,6.9,6.9,92,0.00,OVC,FEW,0.37,WeatherDisplay:10.37,2013-02-11 05:40:00,
2013-02-10 23:45:00,58.4,56.1,29.89,SW,226,8.1,8.1,92,0.00,OVC,FEW,0.37,WeatherDisplay:10.37,2013-02-11 05:45:00,
2013-02-10 23:50:00,58.4,56.1,29.90,WSW,257,6.9,6.9,92,0.00,OVC,FEW,0.37,WeatherDisplay:10.37,2013-02-11 05:50:00,
2013-02-10 23:55:00,58.4,56.1,29.90,SW,215,8.1,8.1,92,0.00,OVC,FEW,0.37,WeatherDisplay:10.37,2013-02-11 05:55:00,